Lower Longswamp, Pennsylvania
Current Conditions -  °F | °C
As of 8:35 PM on Monday 24 Nov 2014 (Local Time) from KXLL Reporting Station
Clear Clear  
Wind Chill: 63°   Ceiling: Unl
Heat Index: 63°   Visibility: 10mi
Dew Point: 54°   Wind: 0mph
Humidity: 72%   Direction: NA
Pressure: 29.7"   Gusts: NA
Location:  40.4939°N, 75.6842°W
Report Text: KXLL 250135Z AUTO 00000KT 10SM CLR 17/12 A2970 RMK AO2
Loading
Personal Weather Stations






























Interactive Weather Map New forecast layout! Learn more

10-Day Weather Forecast

Advertisements
Track Severe Weather on mobile